Home > Products > Valid Products > TAF

000
FTUS44 KOHX 222300
TAFCSV
TAF
KCSV 222328Z 2300/2324 16007KT P6SM SCT250
     FM231100 15008KT P6SM VCSH BKN025
     FM231400 13014G22KT 4SM -SHRA OVC009
     FM231900 15012G20KT 2SM -RA BR OVC006=



000
FTUS44 KOHX 222300
TAFBNA
TAF
KBNA 222328Z 2300/2324 18008KT P6SM FEW060 BKN100
     FM231100 15008KT P6SM VCSH BKN025
     FM231500 14015G25KT 4SM -SHRA OVC009
     FM232100 15013G23KT 2SM -RA OVC007=



000
FTUS44 KOHX 222300
TAFCKV
TAF
KCKV 222328Z 2300/2324 17006KT P6SM FEW060 BKN120
     FM231200 14009KT P6SM VCSH BKN025
     FM231600 13015G25KT 3SM -SHRA OVC009
     FM232000 16013G23KT 2SM -RA OVC006=



000
FTUS44 KOHX 221700
TAFBNA
TAF
KBNA 221728Z 2218/2318 18012G20KT P6SM SCT080
     FM230000 16009KT P6SM BKN050
     FM231000 15008KT P6SM BKN025
     FM231500 14014G22KT 4SM -SHRA OVC007=



000
FTUS44 KOHX 221700
TAFCKV
TAF
KCKV 221728Z 2218/2318 19012G20KT P6SM SCT060
     FM230000 16010KT P6SM BKN040
     FM231000 14009KT P6SM BKN025
     FM231500 13014G22KT 4SM -SHRA OVC007=



000
FTUS44 KOHX 221700
TAFCSV
TAF
KCSV 221728Z 2218/2318 18010G20KT P6SM SCT100
     FM230000 17007KT P6SM BKN060
     FM231000 15008KT P6SM BKN025
     FM231500 13013G21KT 4SM -SHRA OVC007=



000
FTUS44 KOHX 221100
TAFBNA
TAF
KBNA 221126Z 2212/2312 16007KT P6SM OVC100
     FM221500 18012G20KT P6SM SCT070 BKN100
     FM230000 16010KT P6SM BKN040
     FM231000 16010KT P6SM BKN025=



000
FTUS44 KOHX 221100
TAFCKV
TAF
KCKV 221126Z 2212/2312 16006KT P6SM OVC090
      TEMPO 2212/2215 -RA
     FM221500 18012G20KT P6SM SCT080 BKN100
     FM230000 16010KT P6SM BKN040
     FM231000 16010KT P6SM BKN025=



000
FTUS44 KOHX 221100
TAFCSV
TAF
KCSV 221126Z 2212/2312 VRB03KT P6SM SCT200
     FM221500 17010KT P6SM SCT100 BKN120
     FM230000 17005KT P6SM SCT035 BKN050=



000
FTUS44 KOHX 221000 AAA
TAFCKV
TAF AMD
KCKV 221000Z 2210/2306 16006KT P6SM BKN080
      TEMPO 2210/2212 -RA
     FM221400 18012KT P6SM SCT080 BKN200
     FM230000 16008KT P6SM BKN040 OVC100=



000
FTUS44 KOHX 221000 AAA
TAFCKV
TAF AMD
KCKV 221000Z 2210/2306 16006KT P6SM BKN080
      TEMPO 2210/2212 -RA
     FM221400 18012KT P6SM SCT080 BKN200
     FM230000 16008KT P6SM BKN040 OVC100=



000
FTUS44 KOHX 220500
TAFCKV
TAF
KCKV 220525Z 2206/2306 16006KT P6SM BKN080
     FM221400 18012KT P6SM SCT080 BKN200
     FM230000 16008KT P6SM BKN040 OVC100=



000
FTUS44 KOHX 220500
TAFCSV
TAF
KCSV 220525Z 2206/2306 16004KT P6SM SCT200
     FM221400 17009KT P6SM SCT100 BKN200
     FM230000 16005KT P6SM SCT035 BKN060=



000
FTUS44 KOHX 220500
TAFBNA
TAF
KBNA 220525Z 2206/2306 10005KT P6SM SCT100 BKN200
     FM221400 18013KT P6SM SCT080 BKN200
     FM230000 16008KT P6SM BKN040 OVC100=



000
FTUS44 KOHX 212300
TAFCKV
TAF
KCKV 212328Z 2200/2224 12006KT P6SM OVC060
     FM220900 14004KT P6SM BKN070
     FM221400 18012KT P6SM SCT080 BKN200=



000
FTUS44 KOHX 212300
TAFBNA
TAF
KBNA 212328Z 2200/2224 10005KT P6SM BKN050
     FM220200 16005KT P6SM BKN080
     FM221400 18013KT P6SM SCT080 BKN200=



000
FTUS44 KOHX 212300
TAFCSV
TAF
KCSV 212328Z 2200/2224 16004KT P6SM SKC
     FM220200 VRB03KT P6SM BKN100
     FM221400 17009KT P6SM SCT100 BKN200=



000
FTUS44 KOHX 211700
TAFBNA
TAF
KBNA 211726Z 2118/2218 10008KT P6SM SCT100
     FM212100 11008KT P6SM BKN050
     FM220200 16005KT P6SM BKN080=



000
FTUS44 KOHX 211700
TAFCSV
TAF
KCSV 211726Z 2118/2218 06005KT P6SM SKC
     FM220300 VRB03KT P6SM BKN100=



000
FTUS44 KOHX 211700
TAFCKV
TAF
KCKV 211726Z 2118/2218 11008KT P6SM SCT100
     FM212200 12006KT P6SM OVC050
     FM220900 12004KT P6SM BKN070=



000
FTUS44 KOHX 211100
TAFCKV
TAF
KCKV 211120Z 2112/2212 08003KT P6SM OVC050
     FM211600 10007KT P6SM OVC050
     FM220100 12004KT P6SM OVC050=



000
FTUS44 KOHX 211100
TAFBNA
TAF
KBNA 211120Z 2112/2212 03003KT P6SM OVC050
     FM211500 08007KT P6SM OVC050
     FM220000 13005KT P6SM BKN080=



000
FTUS44 KOHX 211100
TAFCSV
TAF
KCSV 211120Z 2112/2212 05005KT P6SM SKC
     FM211500 08005KT P6SM BKN060
     FM220000 00000KT P6SM BKN070=



000
FTUS44 KOHX 210600 RRA
TAFBNA
TAF
KBNA 210626Z 2106/2206 04003KT P6SM BKN070
     FM211400 08007KT P6SM BKN070
     FM220000 13005KT P6SM BKN080=



000
FTUS44 KOHX 210600 RRA
TAFCSV
TAF
KCSV 210626Z 2106/2206 25005KT P6SM SCT070
     FM211500 07005KT P6SM SCT070
     FM220000 00000KT P6SM SCT070=



000
FTUS44 KOHX 210600 RRA
TAFCKV
TAF
KCKV 210626Z 2106/2206 04003KT P6SM BKN070
     FM211400 08005KT P6SM BKN070
     FM220000 12005KT P6SM BKN080=



000
FTUS44 KOHX 202300
TAFBNA
TAF
KBNA 202330Z 2100/2124 VRB03KT P6SM SCT070
     FM211400 08007KT P6SM SCT070=



000
FTUS44 KOHX 202300
TAFCKV
TAF
KCKV 202330Z 2100/2124 30004KT P6SM SCT070
     FM211400 08005KT P6SM SCT070=



000
FTUS44 KOHX 202300
TAFCSV
TAF
KCSV 202330Z 2100/2124 26007KT P6SM SKC
     FM210100 26002KT P6SM SKC
     FM211500 07005KT P6SM SKC=



000
FTUS44 KOHX 201700
TAFCKV
TAF
KCKV 201726Z 2018/2118 31010KT P6SM SKC
     FM211400 08005KT P6SM SKC=



000
FTUS44 KOHX 201700
TAFBNA
TAF
KBNA 201726Z 2018/2118 33009KT P6SM SKC
     FM211400 08005KT P6SM SKC=



000
FTUS44 KOHX 201700
TAFCSV
TAF
KCSV 201726Z 2018/2118 26010G20KT P6SM SKC
     FM210100 26004KT P6SM SKC
     FM211500 08005KT P6SM SKC=



000
FTUS44 KOHX 201500 AAB
TAFCSV
TAF AMD
KCSV 201550Z 2016/2112 26010KT P6SM SCT020
     FM210000 VRB02KT P6SM SKC=



000
FTUS44 KOHX 201500 AAA
TAFCSV
TAF AMD
KCSV 201506Z 2015/2112 28010KT P6SM BKN020
     FM201700 28008KT P6SM SKC
     FM210000 VRB02KT P6SM SKC=



000
FTUS44 KOHX 201300 AAA
TAFBNA
TAF AMD
KBNA 201318Z 2013/2112 29003KT P6SM FEW250=



000
FTUS44 KOHX 201100 CCA
TAFBNA
TAF COR
KBNA 201132Z 2012/2112 30003KT P6SM SKC
      TEMPO 2012/2013 BKN035=



000
FTUS44 KOHX 201100
TAFCKV
TAF
KCKV 201120Z 2012/2112 30004KT P6SM SKC=



000
FTUS44 KOHX 201100
TAFCSV
TAF
KCSV 201120Z 2012/2112 26007KT P6SM SKC
     FM210000 VRB02KT P6SM SKC=



000
FTUS44 KOHX 201100
TAFBNA
TAF
KBNA 201120Z 2012/2112 30003KT P6SM SKC
      TEMPO 2012/2013 BKN030=



000
FTUS44 KOHX 200500
TAFCSV
TAF
KCSV 200523Z 2006/2106 22005KT P6SM -SN OVC050
     FM200800 24005KT P6SM BKN050
     FM201400 27008KT P6SM SCT040
     FM210000 00000KT P6SM SKC=



000
FTUS44 KOHX 200500
TAFBNA
TAF
KBNA 200523Z 2006/2106 26008KT P6SM SCT050
     FM200800 26004KT P6SM SCT050
     FM201400 31007KT P6SM FEW050
     FM210000 05003KT P6SM SKC=



000
FTUS44 KOHX 200500
TAFCKV
TAF
KCKV 200523Z 2006/2106 33008KT P6SM BKN045
     FM200800 31005KT P6SM SCT050
     FM201600 31007KT P6SM FEW050
     FM210000 03003KT P6SM SKC=



000
FTUS44 KOHX 200400 AAA
TAFBNA
TAF AMD
KBNA 200406Z 2004/2024 21007KT P6SM FEW050
     FM200900 27007KT P6SM SCT050
     FM201600 30007KT P6SM FEW050=



000
FTUS44 KOHX 200400 AAA
TAFCSV
TAF AMD
KCSV 200406Z 2004/2024 20004KT P6SM OVC060
     FM200900 26006KT P6SM -SN SCT040
      TEMPO 2009/2013 -SN BKN040
     FM201600 27009KT P6SM SCT040=



    US Dept of Commerce
    National Oceanic and Atmospheric Administration
    National Weather Service
    1325 East West Highway
    Silver Spring, MD 20910
    Page Author: NWS Internet Services Team
Disclaimer
Information Quality
Credits
Glossary
Privacy Policy
Freedom of Information Act (FOIA)
About Us
Career Opportunities